Página principal
METAR-TAF:

METAR-TAF

Aeroportos :

Rota, Espanha

latitude: 36-39N, longitude: 006-21W, altura: 26 m

Observação actual do tempo

O boletim foi feito há 44 minutos, às 05:00 UTC
Vento 1 kt com direcção variável
Temperatura 16°C
Humidade 94%
Pressão 1013 hPa
Visibilidade 10 km ou mais
Nuvens dispersasa uma altura de 1600 ft
chuva fraca

METAR: LERT 260500Z VRB01KT 9999 -RA SCT016 16/15 Q1013 NOSIG

Hora: 07:44 (05:44 UTC)


TAF: em falta

Observações e previsões do tempo de mais de 4000 aeroportos (mensagens METAR e TAF).

As estações disponíveis são os pontos amarelos e vermelhos sobre o mapa.

Mova o rato sobre o mapa para ver o nome da estação.

Depois clique no ponto para visualizar as observações e previsões meteorológicas.

Para alterar o mapa : clique nos botões verdes com uma cruz preta para aumentar o zoom; no botão verde com uma pitada de zoom; ou nas setas verdes para mapas adjacentes.


METAR-TAF: